Time;durP1;ratioP1;P1;durP2;ratioP2;P2;SDS_P1;SDS_P2;PMS_P1;PMS_P2;Temp;Humidity;BMP_temperature;BMP_pressure;BME280_temperature;BME280_humidity;BME280_pressure;Samples;Min_cycle;Max_cycle;Signal;HPM_P1;HPM_P2
2021/06/26 00:01:53;;;;;;;18.65;5.18;;;;;;;26.44;56.80;94891.00;5048189;28;20028;-75
2021/06/26 00:04:18;;;;;;;16.23;5.15;;;;;;;26.43;56.67;94894.25;5048290;28;20064;-75
2021/06/26 00:06:44;;;;;;;21.63;5.45;;;;;;;26.44;56.47;94890.25;5028631;28;20029;-75
2021/06/26 00:09:09;;;;;;;15.98;5.65;;;;;;;26.51;57.35;94889.59;5047376;28;20025;-75
2021/06/26 00:11:35;;;;;;;20.45;5.75;;;;;;;26.53;57.21;94881.56;5029565;28;20020;-75
2021/06/26 00:14:00;;;;;;;21.52;5.75;;;;;;;26.50;57.38;94888.09;5063913;28;20036;-75
2021/06/26 00:16:25;;;;;;;15.52;4.75;;;;;;;26.47;57.17;94894.66;5049380;28;20028;-75
2021/06/26 00:18:51;;;;;;;17.67;5.40;;;;;;;26.41;56.81;94888.56;5066854;28;20032;-75
2021/06/26 00:21:16;;;;;;;20.88;6.30;;;;;;;26.46;56.88;94898.69;5067213;28;20044;-75
2021/06/26 00:23:42;;;;;;;16.85;5.28;;;;;;;26.44;57.31;94901.94;5062489;28;20029;-75
2021/06/26 00:26:07;;;;;;;15.32;4.97;;;;;;;26.41;56.53;94907.72;5047574;28;20070;-75
2021/06/26 00:28:33;;;;;;;14.80;4.82;;;;;;;26.42;56.61;94909.22;5046956;28;20601;-75
2021/06/26 00:30:58;;;;;;;16.52;4.50;;;;;;;26.40;56.25;94909.75;5029082;28;20407;-75
2021/06/26 00:33:24;;;;;;;16.35;4.97;;;;;;;26.44;56.36;94906.66;5046630;28;20075;-75
2021/06/26 00:35:49;;;;;;;15.35;5.07;;;;;;;26.47;56.97;94905.59;5047052;28;20029;-75
2021/06/26 00:38:14;;;;;;;18.50;5.47;;;;;;;26.47;56.94;94905.59;5046863;28;20032;-75
2021/06/26 00:40:40;;;;;;;18.38;4.43;;;;;;;26.48;57.96;94890.66;5047177;28;20028;-75
2021/06/26 00:43:05;;;;;;;16.00;5.25;;;;;;;26.44;58.34;94901.19;5047039;28;20036;-75
2021/06/26 00:45:31;;;;;;;17.17;5.03;;;;;;;26.37;58.64;94901.88;5047291;28;20017;-75
2021/06/26 00:47:56;;;;;;;19.95;5.43;;;;;;;26.33;58.54;94902.16;5046565;28;20032;-75
2021/06/26 00:50:24;;;;;;;18.55;4.90;;;;;;;26.33;58.22;94891.22;5047259;28;20062;-75
2021/06/26 00:52:49;;;;;;;16.98;4.65;;;;;;;26.33;58.13;94895.97;5047077;28;21639;-75
2021/06/26 00:55:15;;;;;;;16.55;4.53;;;;;;;26.35;58.49;94899.66;5047014;28;20033;-75
2021/06/26 00:57:44;;;;;;;18.08;5.18;;;;;;;26.33;58.51;94885.00;5046214;28;20114;-75
2021/06/26 01:00:10;;;;;;;18.25;5.15;;;;;;;26.32;58.67;94889.00;5046571;28;20037;-75
2021/06/26 01:02:35;;;;;;;16.60;4.40;;;;;;;26.34;58.05;94891.97;5047200;28;20024;-75
2021/06/26 01:05:01;;;;;;;15.40;4.40;;;;;;;26.35;57.82;94887.94;5047138;28;20110;-74
2021/06/26 01:07:26;;;;;;;19.92;5.57;;;;;;;26.36;57.83;94894.91;5046915;28;20029;-75
2021/06/26 01:09:52;;;;;;;18.00;4.80;;;;;;;26.31;57.89;94865.66;5046337;28;20539;-75
2021/06/26 01:12:17;;;;;;;16.35;5.07;;;;;;;26.30;58.64;94869.66;5029026;28;20029;-75
2021/06/26 01:14:43;;;;;;;14.52;4.75;;;;;;;26.26;58.59;94858.25;5047658;28;20029;-75
2021/06/26 01:17:08;;;;;;;17.73;4.63;;;;;;;26.25;58.07;94851.31;5046750;28;20036;-75
2021/06/26 01:19:34;;;;;;;15.90;4.68;;;;;;;26.22;58.08;94846.91;5046618;28;20021;-75
2021/06/26 01:22:00;;;;;;;18.23;4.97;;;;;;;26.22;58.40;94854.38;5046798;28;20049;-75
2021/06/26 01:24:26;;;;;;;20.02;5.45;;;;;;;26.19;58.52;94842.50;5028432;28;20025;-75
2021/06/26 01:26:56;;;;;;;16.70;5.03;;;;;;;26.16;58.81;94843.56;5046450;28;20118;-75
2021/06/26 01:29:22;;;;;;;21.05;5.63;;;;;;;26.07;59.13;94846.75;5028525;28;20491;-75
2021/06/26 01:31:47;;;;;;;17.60;5.00;;;;;;;25.99;59.21;94845.94;5046372;28;20075;-75
2021/06/26 01:34:12;;;;;;;17.10;4.85;;;;;;;25.89;59.57;94847.63;5046451;28;20025;-75
2021/06/26 01:36:38;;;;;;;18.50;4.82;;;;;;;25.92;60.51;94852.03;5045277;28;20029;-76
2021/06/26 01:39:03;;;;;;;17.13;5.43;;;;;;;25.93;60.74;94855.50;5046185;28;20028;-75
2021/06/26 01:41:30;;;;;;;15.23;4.75;;;;;;;25.94;60.46;94860.44;5046617;28;20057;-75
2021/06/26 01:43:55;;;;;;;21.38;6.60;;;;;;;25.88;60.77;94857.09;5046332;28;20028;-76
2021/06/26 01:46:21;;;;;;;20.40;4.55;;;;;;;25.87;61.30;94868.56;5046630;28;20354;-75
2021/06/26 01:48:46;;;;;;;20.85;6.00;;;;;;;25.76;61.28;94860.59;5046320;28;20037;-75
2021/06/26 01:51:12;;;;;;;17.27;4.65;;;;;;;25.85;61.56;94871.84;5046814;28;20519;-75
2021/06/26 01:53:37;;;;;;;16.25;5.00;;;;;;;25.85;61.38;94884.78;5046601;28;20502;-75
2021/06/26 01:56:03;;;;;;;17.65;4.82;;;;;;;25.83;61.38;94879.84;5046079;28;20017;-75
2021/06/26 01:58:28;;;;;;;16.33;5.32;;;;;;;25.75;61.51;94880.28;5046365;28;20078;-75
2021/06/26 02:00:54;;;;;;;16.60;5.38;;;;;;;25.77;61.66;94897.66;5046124;28;20021;-75
2021/06/26 02:03:19;;;;;;;16.90;4.90;;;;;;;25.71;62.05;94893.53;5046382;28;20060;-75
2021/06/26 02:05:45;;;;;;;13.23;4.90;;;;;;;25.66;61.70;94903.31;5025498;28;20037;-75
2021/06/26 02:08:10;;;;;;;17.40;5.13;;;;;;;25.58;62.20;94904.47;5045909;28;20028;-75
2021/06/26 02:10:36;;;;;;;17.85;5.05;;;;;;;25.43;62.33;94909.72;5048703;28;20035;-75
2021/06/26 02:13:01;;;;;;;19.88;5.38;;;;;;;25.46;62.11;94900.47;5065485;28;20499;-75
2021/06/26 02:15:27;;;;;;;15.93;5.25;;;;;;;25.41;62.24;94904.03;5070458;28;20024;-75
2021/06/26 02:17:52;;;;;;;13.18;4.22;;;;;;;25.40;61.23;94900.56;5069848;28;20028;-75
2021/06/26 02:20:18;;;;;;;16.65;5.00;;;;;;;25.27;61.66;94913.47;5069994;28;20036;-75
2021/06/26 02:22:45;;;;;;;26.13;5.00;;;;;;;25.29;61.76;94910.97;5070001;28;20024;-75
2021/06/26 02:25:10;;;;;;;17.38;5.88;;;;;;;25.16;62.09;94913.69;5069510;28;20146;-76
2021/06/26 02:27:36;;;;;;;14.77;4.82;;;;;;;25.16;62.22;94913.69;5069646;28;20032;-75
2021/06/26 02:30:03;;;;;;;17.45;4.68;;;;;;;25.14;61.80;94910.75;5037589;28;20025;-75
2021/06/26 02:32:29;;;;;;;14.00;4.20;;;;;;;25.07;61.78;94903.16;5054688;28;20411;-75
2021/06/26 02:34:54;;;;;;;17.17;4.28;;;;;;;25.09;61.55;94892.41;5063565;28;20044;-75
2021/06/26 02:37:20;;;;;;;14.98;4.70;;;;;;;25.04;61.79;94890.53;5049366;28;20032;-75
2021/06/26 02:39:46;;;;;;;18.70;4.95;;;;;;;25.08;61.53;94885.50;5049360;28;20033;-76
2021/06/26 02:42:11;;;;;;;20.88;4.90;;;;;;;25.10;61.67;94882.97;5050109;28;20094;-76
2021/06/26 02:44:37;;;;;;;21.88;5.03;;;;;;;25.13;61.71;94881.94;5028904;28;20026;-76
2021/06/26 02:47:02;;;;;;;16.75;4.63;;;;;;;25.08;61.91;94885.50;5048609;28;20029;-76
2021/06/26 02:49:28;;;;;;;18.40;5.15;;;;;;;25.09;62.12;94880.75;5049333;28;20029;-75
2021/06/26 02:51:54;;;;;;;17.67;4.95;;;;;;;25.01;61.75;94880.66;5047966;28;20072;-75
2021/06/26 02:54:19;;;;;;;15.52;5.50;;;;;;;25.02;62.55;94879.41;5030973;28;20475;-76
2021/06/26 02:56:45;;;;;;;17.10;4.60;;;;;;;24.86;62.28;94858.53;5048924;28;20408;-76
2021/06/26 02:59:10;;;;;;;15.15;4.57;;;;;;;25.06;62.48;94865.41;5031535;28;20510;-75
2021/06/26 03:01:36;;;;;;;17.92;5.28;;;;;;;25.07;61.76;94873.09;5048860;28;20427;-76
2021/06/26 03:04:01;;;;;;;14.93;4.80;;;;;;;25.05;62.12;94870.16;5049191;28;20499;-76
2021/06/26 03:06:27;;;;;;;18.92;5.10;;;;;;;24.99;62.23;94866.78;5049417;28;20031;-75
2021/06/26 03:08:52;;;;;;;14.15;4.15;;;;;;;25.01;62.13;94869.72;5048055;28;20098;-76
2021/06/26 03:11:17;;;;;;;16.02;4.57;;;;;;;25.02;62.36;94871.19;5048612;28;20094;-75
2021/06/26 03:13:43;;;;;;;15.60;5.25;;;;;;;25.00;62.30;94868.22;5056830;28;20094;-76
2021/06/26 03:16:08;;;;;;;25.30;5.40;;;;;;;24.82;61.87;94841.69;5068837;28;20082;-76
2021/06/26 03:18:35;;;;;;;19.67;5.00;;;;;;;24.95;62.40;94874.50;5056552;28;20033;-76
2021/06/26 03:21:00;;;;;;;13.75;4.15;;;;;;;24.95;62.59;94871.78;5048141;28;20467;-75
2021/06/26 03:23:26;;;;;;;12.25;4.03;;;;;;;24.86;63.06;94874.91;5048572;28;20025;-75
2021/06/26 03:25:51;;;;;;;14.65;4.95;;;;;;;24.84;63.22;94871.97;5030289;28;20024;-76
2021/06/26 03:28:16;;;;;;;20.60;4.60;;;;;;;24.79;62.92;94874.06;5048472;28;20029;-75
2021/06/26 03:30:43;;;;;;;20.77;5.05;;;;;;;24.69;62.43;94867.50;5048572;28;20392;-75
2021/06/26 03:33:09;;;;;;;21.60;5.18;;;;;;;24.68;62.63;94871.50;5048418;28;20495;-75
2021/06/26 03:35:36;;;;;;;17.67;5.30;;;;;;;24.64;63.17;94871.81;5048544;28;20040;-75
2021/06/26 03:38:01;;;;;;;18.83;4.47;;;;;;;24.72;62.92;94877.41;5047475;28;20102;-76
2021/06/26 03:40:27;;;;;;;16.63;4.90;;;;;;;24.67;63.32;94878.22;5048847;28;20025;-76
2021/06/26 03:42:52;;;;;;;11.45;4.50;;;;;;;24.65;63.34;94880.72;5047955;28;20025;-76
2021/06/26 03:45:18;;;;;;;16.40;4.75;;;;;;;24.58;63.24;94875.88;5048332;28;20040;-75
2021/06/26 03:47:43;;;;;;;20.48;5.35;;;;;;;24.68;63.79;94885.91;5047915;28;20033;-75
2021/06/26 03:50:09;;;;;;;18.58;4.60;;;;;;;24.66;63.42;94887.66;5048716;28;20028;-75
2021/06/26 03:52:34;;;;;;;13.73;4.65;;;;;;;24.65;64.13;94897.09;5047787;28;20480;-75
2021/06/26 03:55:00;;;;;;;19.45;5.70;;;;;;;24.63;63.96;94894.16;5048657;28;20029;-76
2021/06/26 03:57:25;;;;;;;16.70;4.65;;;;;;;24.65;63.63;94910.75;5047838;28;20075;-76
2021/06/26 03:59:51;;;;;;;17.77;5.60;;;;;;;24.38;63.25;94862.81;5048164;28;20036;-76
2021/06/26 04:02:17;;;;;;;15.75;4.60;;;;;;;24.65;63.46;94902.56;5047898;28;20101;-76
2021/06/26 04:04:42;;;;;;;15.98;5.35;;;;;;;24.65;63.83;94913.50;5047600;28;20041;-75
2021/06/26 04:07:08;;;;;;;20.48;5.32;;;;;;;24.64;63.47;94922.97;5047890;28;20404;-75
2021/06/26 04:09:33;;;;;;;15.30;4.90;;;;;;;24.64;63.17;94920.97;5047482;28;20055;-75
2021/06/26 04:11:59;;;;;;;24.48;6.20;;;;;;;24.73;61.50;94925.31;5047882;28;20028;-75
2021/06/26 04:14:24;;;;;;;18.38;5.07;;;;;;;24.75;60.83;94928.97;5047855;28;20029;-75
2021/06/26 04:16:49;;;;;;;20.15;4.53;;;;;;;24.78;61.51;94927.19;5048092;28;20032;-76
2021/06/26 04:19:15;;;;;;;12.68;4.45;;;;;;;24.80;60.76;94930.16;5047703;28;20036;-76
2021/06/26 04:21:41;;;;;;;17.52;5.45;;;;;;;24.80;60.66;94924.69;5047448;28;20028;-76
2021/06/26 04:24:07;;;;;;;15.93;4.68;;;;;;;24.83;60.87;94919.66;5045441;28;20511;-76
2021/06/26 04:26:32;;;;;;;16.77;4.53;;;;;;;24.86;61.27;94924.09;5047729;28;20053;-73
2021/06/26 04:28:58;;;;;;;18.80;4.13;;;;;;;24.92;59.85;94924.72;5029506;28;20033;-74
2021/06/26 04:31:23;;;;;;;13.27;4.15;;;;;;;24.96;60.40;94922.44;5047004;28;20051;-75
2021/06/26 04:33:49;;;;;;;20.60;4.82;;;;;;;24.97;60.43;94914.97;5045413;28;20036;-74
2021/06/26 04:36:15;;;;;;;17.30;4.28;;;;;;;25.02;62.22;94925.09;5046996;28;20484;-73
2021/06/26 04:38:40;;;;;;;17.30;5.13;;;;;;;24.98;62.40;94914.44;5046900;28;20414;-78
2021/06/26 04:41:06;;;;;;;17.23;4.28;;;;;;;24.79;62.79;94885.00;5026149;28;20511;-79
2021/06/26 04:43:31;;;;;;;20.05;4.63;;;;;;;25.07;63.07;94921.56;5043107;28;20033;-77
2021/06/26 04:45:57;;;;;;;13.30;4.68;;;;;;;25.08;63.67;94918.28;5027802;28;20018;-77
2021/06/26 04:48:25;;;;;;;16.08;4.53;;;;;;;25.12;63.69;94913.25;5028610;28;20083;-77
2021/06/26 04:50:50;;;;;;;15.40;4.18;;;;;;;25.16;63.17;94919.16;5046925;28;20020;-76
2021/06/26 04:53:16;;;;;;;16.58;5.18;;;;;;;25.22;63.61;94917.06;5046769;28;20025;-74
2021/06/26 04:55:41;;;;;;;18.20;4.40;;;;;;;25.28;63.20;94931.34;5047348;28;20477;-74
2021/06/26 04:58:07;;;;;;;17.65;5.00;;;;;;;25.27;63.01;94913.47;5045559;28;20032;-73
2021/06/26 05:00:32;;;;;;;20.23;5.32;;;;;;;25.38;62.86;94929.66;5046212;28;20020;-73
2021/06/26 05:02:58;;;;;;;16.20;5.00;;;;;;;25.40;63.20;94927.91;5047031;28;20025;-75
2021/06/26 05:05:23;;;;;;;25.33;5.88;;;;;;;25.43;62.80;94926.84;5045814;28;20079;-75
2021/06/26 05:07:48;;;;;;;16.90;5.57;;;;;;;25.44;62.28;94922.09;5046640;28;20036;-74
2021/06/26 05:10:14;;;;;;;24.58;5.88;;;;;;;25.53;61.86;94925.19;5029298;28;20044;-74
2021/06/26 05:12:43;;;;;;;20.15;7.43;;;;;;;25.58;61.90;94932.53;5050035;28;20029;-75
2021/06/26 05:15:09;;;;;;;25.43;6.83;;;;;;;25.65;61.30;94931.19;5047371;28;20098;-76
2021/06/26 05:17:35;;;;;;;26.80;6.63;;;;;;;25.76;60.99;94926.25;5046810;28;20036;-75
2021/06/26 05:20:00;;;;;;;24.13;5.90;;;;;;;25.88;60.30;94928.25;5054389;28;20407;-76
2021/06/26 05:22:26;;;;;;;21.58;6.32;;;;;;;25.97;60.36;94930.53;5050512;28;20032;-77
2021/06/26 05:24:51;;;;;;;15.98;5.82;;;;;;;26.12;60.11;94933.47;5048595;28;20032;-77
2021/06/26 05:27:17;;;;;;;22.35;6.32;;;;;;;26.23;59.80;94922.28;5047416;28;20029;-76
2021/06/26 05:29:43;;;;;;;19.08;5.40;;;;;;;26.31;59.49;94906.72;5046894;28;20116;-76
2021/06/26 05:32:09;;;;;;;17.60;5.63;;;;;;;26.39;59.11;94915.75;5046862;28;20033;-73
2021/06/26 05:34:34;;;;;;;19.80;6.20;;;;;;;26.55;59.00;94920.13;5044747;28;20041;-73
2021/06/26 05:37:00;;;;;;;24.00;5.95;;;;;;;26.62;58.96;94930.41;5046424;28;20032;-77
2021/06/26 05:39:25;;;;;;;28.40;5.82;;;;;;;26.74;58.59;94931.63;5045921;28;20800;-74
2021/06/26 05:41:51;;;;;;;17.55;5.50;;;;;;;26.84;58.47;94933.38;5045065;28;20043;-78
2021/06/26 05:44:18;;;;;;;21.85;6.55;;;;;;;26.90;58.28;94934.75;5048373;28;20037;-75
2021/06/26 05:46:43;;;;;;;25.88;6.25;;;;;;;26.98;57.88;94938.31;5050052;28;20017;-78
2021/06/26 05:49:09;;;;;;;22.50;6.18;;;;;;;27.14;57.20;94939.91;5051589;28;20031;-77
2021/06/26 05:51:35;;;;;;;23.27;5.88;;;;;;;27.26;56.84;94930.13;5051652;28;20033;-75
2021/06/26 05:54:00;;;;;;;30.77;15.05;;;;;;;27.32;56.29;94923.25;5052344;28;20427;-76
2021/06/26 05:56:25;;;;;;;20.35;5.95;;;;;;;27.52;55.84;94932.72;5051144;28;20032;-73
2021/06/26 05:58:51;;;;;;;18.02;5.80;;;;;;;27.63;55.29;94935.19;5051217;28;20029;-73
2021/06/26 06:01:16;;;;;;;18.90;5.50;;;;;;;27.67;54.96;94930.06;5052430;28;20040;-74
2021/06/26 06:03:42;;;;;;;18.80;5.78;;;;;;;27.80;54.32;94927.97;5051319;28;20053;-76
2021/06/26 06:06:07;;;;;;;23.90;7.57;;;;;;;27.91;54.29;94922.91;5051527;28;20017;-74
2021/06/26 06:08:33;;;;;;;18.65;6.25;;;;;;;28.07;54.27;94921.72;5050944;28;20025;-71
2021/06/26 06:10:59;;;;;;;16.17;5.60;;;;;;;28.22;53.16;94924.56;5057252;28;20414;-72
2021/06/26 06:13:25;;;;;;;15.38;4.32;;;;;;;28.35;53.08;94932.66;5063409;28;20024;-72
2021/06/26 06:15:50;;;;;;;20.30;5.22;;;;;;;28.48;52.69;94922.25;5054895;28;20803;-72
2021/06/26 06:18:17;;;;;;;17.63;5.03;;;;;;;28.57;51.97;94932.00;5051160;28;20033;-72
2021/06/26 06:20:42;;;;;;;23.80;5.90;;;;;;;28.69;51.74;94927.66;5055390;28;20047;-72
2021/06/26 06:23:08;;;;;;;21.13;4.97;;;;;;;28.81;51.30;94918.53;5049219;28;20415;-72
2021/06/26 06:25:33;;;;;;;17.75;5.30;;;;;;;28.92;50.87;94921.66;5049987;28;20029;-71
2021/06/26 06:27:59;;;;;;;21.65;5.47;;;;;;;28.72;50.22;94886.06;5048976;28;20025;-73
2021/06/26 06:30:25;;;;;;;20.55;5.55;;;;;;;29.03;49.81;94926.81;5040059;28;20044;-71
2021/06/26 06:32:50;;;;;;;17.70;4.90;;;;;;;28.90;49.33;94893.97;5052966;28;20029;-72
2021/06/26 06:35:16;;;;;;;18.48;5.50;;;;;;;29.22;49.71;94924.41;5049135;28;20025;-72
2021/06/26 06:37:41;;;;;;;22.83;6.25;;;;;;;29.15;48.97;94886.66;5048855;28;20033;-71
2021/06/26 06:40:08;;;;;;;21.38;5.88;;;;;;;29.48;48.64;94907.56;5029820;28;20021;-72
2021/06/26 06:42:33;;;;;;;18.70;5.82;;;;;;;29.49;48.76;94914.53;5048481;28;20410;-72
2021/06/26 06:44:59;;;;;;;20.13;5.40;;;;;;;29.55;48.58;94906.81;5048976;28;20032;-71
2021/06/26 06:47:24;;;;;;;17.35;5.20;;;;;;;29.64;48.30;94914.50;5048859;28;20025;-71
2021/06/26 06:49:50;;;;;;;21.35;5.57;;;;;;;29.60;48.33;94919.66;5030105;28;20474;-71
2021/06/26 06:52:15;;;;;;;18.48;5.93;;;;;;;29.58;47.85;94917.47;5049026;28;20495;-71
2021/06/26 06:54:40;;;;;;;18.83;5.22;;;;;;;29.54;48.84;94910.88;5048945;28;20463;-71
2021/06/26 06:57:06;;;;;;;17.90;4.90;;;;;;;29.57;48.19;94909.75;5046934;28;20024;-71
2021/06/26 06:59:32;;;;;;;17.38;4.88;;;;;;;29.73;47.10;94907.16;5048922;28;20048;-71
2021/06/26 07:01:58;;;;;;;19.55;4.60;;;;;;;29.79;48.02;94916.00;5057250;28;20021;-73
2021/06/26 07:04:24;;;;;;;13.88;5.07;;;;;;;29.64;46.88;94909.00;5066299;28;20060;-79
2021/06/26 07:06:50;;;;;;;19.40;5.50;;;;;;;29.44;45.52;94896.19;5052521;28;20045;-77
2021/06/26 07:09:15;;;;;;;15.82;4.43;;;;;;;29.27;45.75;94915.28;5030807;28;20032;-78
2021/06/26 07:11:40;;;;;;;17.00;5.03;;;;;;;29.05;44.90;94904.97;5054648;28;20017;-77
2021/06/26 07:14:06;;;;;;;14.43;4.65;;;;;;;28.64;44.21;94906.53;5051710;28;20021;-77
2021/06/26 07:16:31;;;;;;;16.05;4.57;;;;;;;28.24;43.79;94900.75;5061060;28;20527;-77
2021/06/26 07:18:57;;;;;;;12.50;4.45;;;;;;;27.99;43.12;94900.97;5049837;28;20024;-76
2021/06/26 07:21:22;;;;;;;14.85;4.00;;;;;;;27.82;43.05;94898.72;5053001;28;20138;-77
2021/06/26 07:23:48;;;;;;;13.43;4.03;;;;;;;27.40;43.13;94868.44;5032692;28;20025;-76
2021/06/26 07:26:13;;;;;;;15.63;4.38;;;;;;;27.42;43.49;94904.28;5061444;28;20037;-77
2021/06/26 07:28:38;;;;;;;14.50;3.90;;;;;;;27.30;44.01;94903.09;5053433;28;20029;-76
2021/06/26 07:31:04;;;;;;;11.80;3.88;;;;;;;27.15;44.44;94894.75;5051601;28;20025;-76
2021/06/26 07:33:29;;;;;;;13.57;4.50;;;;;;;27.12;45.68;94895.84;5062312;28;20036;-77
2021/06/26 07:35:55;;;;;;;13.23;4.57;;;;;;;27.11;45.77;94908.06;5047903;28;20029;-77
2021/06/26 07:38:22;;;;;;;15.40;4.57;;;;;;;27.08;47.39;94898.16;5046692;28;20075;-76
2021/06/26 07:40:48;;;;;;;14.27;4.25;;;;;;;27.08;48.62;94898.16;5048109;28;20503;-77
2021/06/26 07:43:13;;;;;;;13.43;4.25;;;;;;;27.02;50.32;94900.31;5047911;28;20067;-76
2021/06/26 07:45:39;;;;;;;11.02;3.90;;;;;;;26.81;50.73;94863.19;5047749;28;20486;-76
2021/06/26 07:48:05;;;;;;;11.20;3.97;;;;;;;27.05;51.66;94904.00;5029347;28;20055;-77
2021/06/26 07:50:30;;;;;;;10.38;3.80;;;;;;;27.02;52.62;94914.03;5048000;28;20037;-77
2021/06/26 07:52:56;;;;;;;11.02;4.07;;;;;;;26.96;53.44;94896.97;5048185;28;20080;-76
2021/06/26 07:55:21;;;;;;;9.32;4.25;;;;;;;26.95;54.05;94901.00;5047986;28;20036;-76
2021/06/26 07:57:46;;;;;;;9.05;3.92;;;;;;;26.95;54.57;94911.97;5048140;28;20037;-76
2021/06/26 08:00:12;;;;;;;13.25;4.43;;;;;;;26.79;55.10;94882.91;5049365;28;20033;-76
2021/06/26 08:02:38;;;;;;;9.15;3.45;;;;;;;26.77;55.33;94890.94;5048522;28;20064;-77
2021/06/26 08:05:04;;;;;;;11.38;3.75;;;;;;;26.54;55.76;94861.84;5047480;28;20527;-76
2021/06/26 08:07:29;;;;;;;9.13;3.53;;;;;;;26.82;56.06;94903.78;5050184;28;20112;-77
2021/06/26 08:09:55;;;;;;;9.75;3.92;;;;;;;26.51;56.49;94862.19;5042739;28;20067;-76
2021/06/26 08:12:20;;;;;;;12.05;3.67;;;;;;;26.23;56.81;94818.25;5056608;28;20027;-76
2021/06/26 08:14:46;;;;;;;9.85;3.90;;;;;;;26.65;57.17;94883.53;5031359;28;20565;-76
2021/06/26 08:17:11;;;;;;;10.57;3.65;;;;;;;26.45;57.27;94861.59;5030540;28;20492;-76
2021/06/26 08:19:37;;;;;;;9.25;3.97;;;;;;;26.70;57.59;94892.88;5031191;28;20487;-77
2021/06/26 08:22:04;;;;;;;8.57;3.58;;;;;;;26.68;57.99;94898.16;5048587;28;20480;-76
2021/06/26 08:24:30;;;;;;;7.88;4.00;;;;;;;26.66;58.07;94895.22;5048856;28;20450;-76
2021/06/26 08:26:55;;;;;;;6.15;3.30;;;;;;;26.57;57.71;94888.19;5049009;28;20024;-77
2021/06/26 08:29:21;;;;;;;7.20;3.20;;;;;;;26.31;58.27;94843.75;5029025;28;20267;-76
2021/06/26 08:31:46;;;;;;;6.30;3.10;;;;;;;26.37;58.15;94858.06;5041474;28;20032;-77
2021/06/26 08:34:12;;;;;;;10.25;3.75;;;;;;;26.61;58.06;94905.03;5033770;28;20082;-77
2021/06/26 08:36:37;;;;;;;6.43;3.00;;;;;;;26.50;58.33;94883.38;5068143;28;20090;-77
2021/06/26 08:39:03;;;;;;;8.73;3.10;;;;;;;26.57;58.24;94892.94;5068197;28;20020;-77
2021/06/26 08:41:28;;;;;;;8.70;3.40;;;;;;;26.28;58.00;94855.75;5058298;28;20418;-76
2021/06/26 08:43:54;;;;;;;8.90;3.80;;;;;;;26.53;57.96;94887.03;5030836;28;20793;-77
2021/06/26 08:46:20;;;;;;;6.50;3.20;;;;;;;26.27;57.64;94845.31;5032988;28;20024;-76
2021/06/26 08:48:45;;;;;;;7.78;3.90;;;;;;;26.01;57.95;94810.56;5035860;28;20033;-76
2021/06/26 08:51:11;;;;;;;7.22;3.42;;;;;;;26.55;58.15;94895.47;5030721;28;20111;-76
2021/06/26 08:53:36;;;;;;;8.68;3.47;;;;;;;26.55;58.06;94892.75;5048153;28;20590;-77
2021/06/26 08:56:02;;;;;;;7.05;3.03;;;;;;;26.45;58.23;94875.28;5057118;28;20566;-77
2021/06/26 08:58:27;;;;;;;7.47;3.08;;;;;;;26.18;57.90;94841.03;5039593;28;20495;-76
2021/06/26 09:00:53;;;;;;;6.57;2.90;;;;;;;26.53;57.73;94903.47;5031391;28;20025;-76
2021/06/26 09:03:21;;;;;;;5.25;2.78;;;;;;;26.23;57.86;94848.38;5036459;28;20039;-76
2021/06/26 09:05:47;;;;;;;6.03;2.97;;;;;;;26.46;57.85;94882.97;5068529;28;20028;-76
2021/06/26 09:08:13;;;;;;;7.57;2.78;;;;;;;26.24;58.24;94849.84;5050063;28;20055;-77
2021/06/26 09:10:40;;;;;;;5.40;2.85;;;;;;;26.51;57.56;94878.63;5050853;28;20619;-76
2021/06/26 09:13:34;;;;;;;6.03;2.95;;;;;;;26.55;57.46;94873.56;5067189;28;20103;-76
2021/06/26 09:16:11;;;;;;;7.72;3.17;;;;;;;26.53;57.54;94876.84;5046298;28;20723;-76
2021/06/26 09:18:42;;;;;;;6.07;2.75;;;;;;;26.50;57.84;94872.44;5063385;28;20135;-77
2021/06/26 09:23:58;;;;;;;6.85;2.60;;;;;;;26.39;57.71;94850.75;5067670;28;20055;-76
2021/06/26 09:26:24;;;;;;;7.05;3.25;;;;;;;26.52;57.29;94864.41;5065954;28;20032;-76
2021/06/26 09:28:49;;;;;;;5.53;2.70;;;;;;;26.51;57.33;94856.72;5034751;28;20078;-77
2021/06/26 09:31:15;;;;;;;6.15;2.65;;;;;;;26.47;57.06;94859.81;5066228;28;20028;-76
2021/06/26 09:33:41;;;;;;;4.78;2.67;;;;;;;25.62;57.28;94729.81;5067290;28;20075;-76
2021/06/26 09:36:10;;;;;;;5.93;2.75;;;;;;;26.42;57.30;94854.44;5067972;28;20527;-77
2021/06/26 09:38:56;;;;;;;4.80;2.33;;;;;;;26.31;57.23;94839.00;5058744;28;20035;-77
2021/06/26 09:41:22;;;;;;;5.38;2.50;;;;;;;26.33;57.64;94846.69;5048163;28;20351;-76
2021/06/26 09:43:47;;;;;;;5.97;2.75;;;;;;;26.36;57.61;94851.81;5047827;28;20415;-77
2021/06/26 09:46:14;;;;;;;6.15;2.60;;;;;;;26.29;57.60;94846.25;5048148;28;20419;-76
2021/06/26 09:49:06;;;;;;;5.68;2.80;;;;;;;26.34;57.49;94853.63;5046777;28;20029;-77
2021/06/26 09:51:32;;;;;;;6.63;2.83;;;;;;;26.25;57.75;94834.91;5042377;28;20146;-76
2021/06/26 09:53:59;;;;;;;3.83;2.00;;;;;;;26.24;57.47;94838.91;5047704;28;20454;-76
2021/06/26 09:56:46;;;;;;;7.43;2.60;;;;;;;26.30;57.79;94839.53;5029509;28;20034;-76
2021/06/26 09:59:13;;;;;;;7.40;2.78;;;;;;;26.28;57.90;94831.13;5046687;28;20044;-76
2021/06/26 10:01:42;;;;;;;5.53;3.10;;;;;;;26.28;57.98;94833.88;5048265;28;20025;-76
2021/06/26 10:04:10;;;;;;;5.45;2.38;;;;;;;26.02;57.66;94794.88;5047793;28;20065;-76
2021/06/26 10:06:36;;;;;;;5.22;2.75;;;;;;;26.20;58.00;94822.06;5039830;28;20025;-76
2021/06/26 10:09:03;;;;;;;5.30;2.42;;;;;;;25.96;57.88;94789.53;5049925;28;20589;-76
2021/06/26 10:11:30;;;;;;;4.30;2.15;;;;;;;26.25;57.96;94829.41;5050387;28;20043;-77
2021/06/26 10:13:55;;;;;;;4.53;2.50;;;;;;;26.10;57.50;94807.38;5047539;28;20032;-76
2021/06/26 10:16:22;;;;;;;4.13;2.33;;;;;;;26.20;57.86;94816.56;5034155;28;20057;-77
2021/06/26 10:18:47;;;;;;;4.13;1.92;;;;;;;26.14;57.79;94796.81;5028047;28;20789;-76
2021/06/26 10:21:13;;;;;;;5.50;2.50;;;;;;;26.21;57.67;94818.06;5029275;28;20028;-77
2021/06/26 10:23:38;;;;;;;4.72;2.38;;;;;;;26.22;57.92;94819.53;5045624;28;20427;-76
2021/06/26 10:26:04;;;;;;;3.80;2.00;;;;;;;25.92;57.61;94780.91;5046213;28;20404;-76
2021/06/26 10:28:29;;;;;;;4.75;2.65;;;;;;;26.20;57.68;94822.06;5047002;28;20116;-77
2021/06/26 10:30:59;;;;;;;5.05;2.10;;;;;;;26.22;57.71;94827.75;5029704;28;20021;-77
2021/06/26 10:33:28;;;;;;;3.72;2.15;;;;;;;26.22;57.75;94825.00;4963898;28;20045;-77
2021/06/26 10:35:54;;;;;;;3.97;2.10;;;;;;;26.15;57.78;94808.50;5039288;28;20032;-76
2021/06/26 10:38:20;;;;;;;4.18;2.38;;;;;;;26.21;57.47;94807.09;5049537;28;20079;-77
2021/06/26 10:40:53;;;;;;;5.75;2.45;;;;;;;26.24;57.45;94811.53;5047860;28;20477;-76
2021/06/26 10:43:22;;;;;;;3.28;1.90;;;;;;;26.22;57.60;94811.31;5029868;28;20029;-76
2021/06/26 10:45:49;;;;;;;4.22;2.00;;;;;;;26.24;57.75;94817.00;5049156;28;20027;-76
2021/06/26 10:48:19;;;;;;;5.00;2.22;;;;;;;26.25;57.66;94818.47;5034096;28;20075;-76
2021/06/26 10:50:52;;;;;;;4.60;2.05;;;;;;;25.93;57.63;94771.44;5034215;28;20032;-76
2021/06/26 10:53:29;;;;;;;4.40;1.85;;;;;;;26.27;57.65;94815.94;5037545;28;20025;-76
2021/06/26 10:56:14;;;;;;;4.70;2.08;;;;;;;26.20;57.40;94805.63;5049184;28;20060;-76
2021/06/26 10:58:46;;;;;;;4.97;2.25;;;;;;;26.29;57.60;94814.16;5048803;28;20461;-78
2021/06/26 11:01:22;;;;;;;3.47;1.92;;;;;;;26.27;57.53;94805.72;5049324;28;20029;-77
2021/06/26 11:03:50;;;;;;;5.53;1.80;;;;;;;26.29;57.35;94807.94;5030413;28;20056;-77
2021/06/26 11:06:24;;;;;;;4.05;2.00;;;;;;;26.30;57.73;94803.94;5047898;28;20040;-77
2021/06/26 11:08:56;;;;;;;3.40;1.88;;;;;;;26.30;57.20;94793.00;5048560;28;20056;-77
2021/06/26 11:11:29;;;;;;;4.22;1.98;;;;;;;26.28;57.47;94795.53;5049017;28;20098;-77
2021/06/26 11:14:29;;;;;;;4.30;1.83;;;;;;;26.29;57.52;94786.78;5048975;28;20415;-77
2021/06/26 11:16:57;;;;;;;4.43;1.92;;;;;;;26.28;57.39;94787.31;4967446;28;20465;-77
2021/06/26 11:19:24;;;;;;;4.18;1.75;;;;;;;26.30;57.40;94793.00;5018941;28;20052;-77
2021/06/26 11:21:51;;;;;;;4.70;1.80;;;;;;;25.96;57.07;94726.59;5049284;28;20032;-77
2021/06/26 11:24:16;;;;;;;5.35;2.10;;;;;;;26.28;57.31;94779.09;5030344;28;20042;-77
2021/06/26 11:26:47;;;;;;;4.63;1.80;;;;;;;26.30;57.10;94774.53;5048494;28;20503;-77